sensor_id;sensor_type;location;lat;lon;timestamp;temperature;humidity
60473;DHT22;46318;52.716;6.444;2022-10-04T00:02:05;13.00;99.90
60473;DHT22;46318;52.716;6.444;2022-10-04T00:04:59;13.00;99.90
60473;DHT22;46318;52.716;6.444;2022-10-04T00:07:43;13.00;99.90
60473;DHT22;46318;52.716;6.444;2022-10-04T00:10:23;13.00;99.90
60473;DHT22;46318;52.716;6.444;2022-10-04T00:13:02;13.00;99.90
60473;DHT22;46318;52.716;6.444;2022-10-04T00:15:35;13.00;99.90
60473;DHT22;46318;52.716;6.444;2022-10-04T00:18:30;13.00;99.90
60473;DHT22;46318;52.716;6.444;2022-10-04T00:21:07;12.90;99.90
60473;DHT22;46318;52.716;6.444;2022-10-04T00:27:16;13.00;99.90
60473;DHT22;46318;52.716;6.444;2022-10-04T00:37:01;12.90;99.90
60473;DHT22;46318;52.716;6.444;2022-10-04T00:44:53;12.90;99.90
60473;DHT22;46318;52.716;6.444;2022-10-04T00:50:39;12.90;99.90
60473;DHT22;46318;52.716;6.444;2022-10-04T00:53:17;12.90;99.90
60473;DHT22;46318;52.716;6.444;2022-10-04T00:55:55;12.90;99.90
60473;DHT22;46318;52.716;6.444;2022-10-04T00:58:25;12.90;99.90
60473;DHT22;46318;52.716;6.444;2022-10-04T01:00:56;12.90;99.90
60473;DHT22;46318;52.716;6.444;2022-10-04T01:03:36;12.90;99.90
60473;DHT22;46318;52.716;6.444;2022-10-04T01:06:05;12.90;99.90
60473;DHT22;46318;52.716;6.444;2022-10-04T01:08:44;12.90;99.90
60473;DHT22;46318;52.716;6.444;2022-10-04T01:11:19;12.90;99.90
60473;DHT22;46318;52.716;6.444;2022-10-04T01:14:03;12.80;99.90
60473;DHT22;46318;52.716;6.444;2022-10-04T01:16:34;12.80;99.90
60473;DHT22;46318;52.716;6.444;2022-10-04T01:21:55;12.80;99.90
60473;DHT22;46318;52.716;6.444;2022-10-04T01:24:24;12.80;99.90
60473;DHT22;46318;52.716;6.444;2022-10-04T01:26:51;12.80;99.90
60473;DHT22;46318;52.716;6.444;2022-10-04T01:29:24;12.80;99.90
60473;DHT22;46318;52.716;6.444;2022-10-04T01:31:53;12.80;99.90
60473;DHT22;46318;52.716;6.444;2022-10-04T01:34:26;12.80;99.90
60473;DHT22;46318;52.716;6.444;2022-10-04T01:36:57;12.80;99.90
60473;DHT22;46318;52.716;6.444;2022-10-04T01:39:25;12.80;99.90
60473;DHT22;46318;52.716;6.444;2022-10-04T01:42:33;12.70;99.90
60473;DHT22;46318;52.716;6.444;2022-10-04T01:48:14;12.70;99.90
60473;DHT22;46318;52.716;6.444;2022-10-04T01:51:24;12.70;99.90
60473;DHT22;46318;52.716;6.444;2022-10-04T01:54:07;12.70;99.90
60473;DHT22;46318;52.716;6.444;2022-10-04T01:56:43;12.70;99.90
60473;DHT22;46318;52.716;6.444;2022-10-04T01:59:20;12.70;99.90
60473;DHT22;46318;52.716;6.444;2022-10-04T02:02:03;12.60;99.90
60473;DHT22;46318;52.716;6.444;2022-10-04T02:04:35;12.60;99.90
60473;DHT22;46318;52.716;6.444;2022-10-04T02:07:03;12.60;99.90
60473;DHT22;46318;52.716;6.444;2022-10-04T02:09:38;12.60;99.90
60473;DHT22;46318;52.716;6.444;2022-10-04T02:12:09;12.60;99.90
60473;DHT22;46318;52.716;6.444;2022-10-04T02:14:44;12.60;99.90
60473;DHT22;46318;52.716;6.444;2022-10-04T02:17:19;12.60;99.90
60473;DHT22;46318;52.716;6.444;2022-10-04T02:19:47;12.50;99.90
60473;DHT22;46318;52.716;6.444;2022-10-04T02:22:14;12.50;99.90
60473;DHT22;46318;52.716;6.444;2022-10-04T02:24:43;12.50;99.90
60473;DHT22;46318;52.716;6.444;2022-10-04T02:27:11;12.50;99.90
60473;DHT22;46318;52.716;6.444;2022-10-04T02:29:38;12.50;99.90
60473;DHT22;46318;52.716;6.444;2022-10-04T02:32:05;12.40;99.90
60473;DHT22;46318;52.716;6.444;2022-10-04T02:34:51;12.40;99.90
60473;DHT22;46318;52.716;6.444;2022-10-04T02:37:25;12.40;99.90
60473;DHT22;46318;52.716;6.444;2022-10-04T02:40:04;12.30;99.90
60473;DHT22;46318;52.716;6.444;2022-10-04T02:48:36;12.30;99.90
60473;DHT22;46318;52.716;6.444;2022-10-04T02:51:27;12.20;99.90
60473;DHT22;46318;52.716;6.444;2022-10-04T02:54:17;12.20;99.90
60473;DHT22;46318;52.716;6.444;2022-10-04T02:56:54;12.10;99.90
60473;DHT22;46318;52.716;6.444;2022-10-04T02:59:21;12.10;99.90
60473;DHT22;46318;52.716;6.444;2022-10-04T03:02:20;12.10;99.90
60473;DHT22;46318;52.716;6.444;2022-10-04T03:04:50;12.10;99.90
60473;DHT22;46318;52.716;6.444;2022-10-04T03:07:18;12.10;99.90
60473;DHT22;46318;52.716;6.444;2022-10-04T03:09:44;12.00;99.90
60473;DHT22;46318;52.716;6.444;2022-10-04T03:12:11;12.00;99.90
60473;DHT22;46318;52.716;6.444;2022-10-04T03:14:38;11.90;99.90
60473;DHT22;46318;52.716;6.444;2022-10-04T03:17:06;11.90;99.90
60473;DHT22;46318;52.716;6.444;2022-10-04T03:19:35;11.90;99.90
60473;DHT22;46318;52.716;6.444;2022-10-04T03:22:12;11.80;99.90
60473;DHT22;46318;52.716;6.444;2022-10-04T03:24:45;11.80;99.90
60473;DHT22;46318;52.716;6.444;2022-10-04T03:27:19;11.80;99.90
60473;DHT22;46318;52.716;6.444;2022-10-04T03:29:47;11.80;99.90
60473;DHT22;46318;52.716;6.444;2022-10-04T03:32:16;11.80;99.90
60473;DHT22;46318;52.716;6.444;2022-10-04T03:34:58;11.70;99.90
60473;DHT22;46318;52.716;6.444;2022-10-04T03:37:27;11.70;99.90
60473;DHT22;46318;52.716;6.444;2022-10-04T03:39:54;11.70;99.90
60473;DHT22;46318;52.716;6.444;2022-10-04T03:42:25;11.70;99.90
60473;DHT22;46318;52.716;6.444;2022-10-04T03:44:59;11.60;99.90
60473;DHT22;46318;52.716;6.444;2022-10-04T03:47:34;11.60;99.90
60473;DHT22;46318;52.716;6.444;2022-10-04T03:50:15;11.60;99.90
60473;DHT22;46318;52.716;6.444;2022-10-04T03:52:52;11.50;99.90
60473;DHT22;46318;52.716;6.444;2022-10-04T03:55:22;11.50;99.90
60473;DHT22;46318;52.716;6.444;2022-10-04T03:57:49;11.50;99.90
60473;DHT22;46318;52.716;6.444;2022-10-04T04:00:17;11.50;99.90
60473;DHT22;46318;52.716;6.444;2022-10-04T04:02:59;11.40;99.90
60473;DHT22;46318;52.716;6.444;2022-10-04T04:05:36;11.40;99.90
60473;DHT22;46318;52.716;6.444;2022-10-04T04:08:41;11.40;99.90
60473;DHT22;46318;52.716;6.444;2022-10-04T04:11:25;11.30;99.90
60473;DHT22;46318;52.716;6.444;2022-10-04T04:14:02;11.30;99.90
60473;DHT22;46318;52.716;6.444;2022-10-04T04:16:36;11.30;99.90
60473;DHT22;46318;52.716;6.444;2022-10-04T04:19:08;11.30;99.90
60473;DHT22;46318;52.716;6.444;2022-10-04T04:21:36;11.20;99.90
60473;DHT22;46318;52.716;6.444;2022-10-04T04:24:05;11.20;99.90
60473;DHT22;46318;52.716;6.444;2022-10-04T04:26:46;11.20;99.90
60473;DHT22;46318;52.716;6.444;2022-10-04T04:29:43;11.10;99.90
60473;DHT22;46318;52.716;6.444;2022-10-04T04:32:29;11.10;99.90
60473;DHT22;46318;52.716;6.444;2022-10-04T04:34:59;11.10;99.90
60473;DHT22;46318;52.716;6.444;2022-10-04T04:37:36;11.10;99.90
60473;DHT22;46318;52.716;6.444;2022-10-04T04:40:24;11.00;99.90
60473;DHT22;46318;52.716;6.444;2022-10-04T04:42:51;11.00;99.90
60473;DHT22;46318;52.716;6.444;2022-10-04T04:45:25;11.00;99.90
60473;DHT22;46318;52.716;6.444;2022-10-04T04:47:54;11.00;99.90
60473;DHT22;46318;52.716;6.444;2022-10-04T04:50:31;11.00;99.90
60473;DHT22;46318;52.716;6.444;2022-10-04T04:53:16;10.90;99.90
60473;DHT22;46318;52.716;6.444;2022-10-04T04:55:51;10.90;99.90
60473;DHT22;46318;52.716;6.444;2022-10-04T04:58:24;10.90;99.90
60473;DHT22;46318;52.716;6.444;2022-10-04T05:00:58;10.80;99.90
60473;DHT22;46318;52.716;6.444;2022-10-04T05:03:26;10.80;99.90
60473;DHT22;46318;52.716;6.444;2022-10-04T05:05:55;10.80;99.90
60473;DHT22;46318;52.716;6.444;2022-10-04T05:08:30;10.80;99.90
60473;DHT22;46318;52.716;6.444;2022-10-04T05:16:48;10.70;99.90
60473;DHT22;46318;52.716;6.444;2022-10-04T05:21:50;10.70;99.90
60473;DHT22;46318;52.716;6.444;2022-10-04T05:24:29;10.70;99.90
60473;DHT22;46318;52.716;6.444;2022-10-04T05:27:02;10.60;99.90
60473;DHT22;46318;52.716;6.444;2022-10-04T05:29:36;10.60;99.90
60473;DHT22;46318;52.716;6.444;2022-10-04T05:35:17;10.60;99.90
60473;DHT22;46318;52.716;6.444;2022-10-04T05:43:48;10.50;99.90
60473;DHT22;46318;52.716;6.444;2022-10-04T05:46:24;10.50;99.90
60473;DHT22;46318;52.716;6.444;2022-10-04T05:49:00;10.50;99.90
60473;DHT22;46318;52.716;6.444;2022-10-04T05:51:34;10.50;99.90
60473;DHT22;46318;52.716;6.444;2022-10-04T05:54:21;10.40;99.90
60473;DHT22;46318;52.716;6.444;2022-10-04T06:06:00;10.40;99.90
60473;DHT22;46318;52.716;6.444;2022-10-04T06:21:03;10.30;99.90
60473;DHT22;46318;52.716;6.444;2022-10-04T06:23:40;10.30;99.90
60473;DHT22;46318;52.716;6.444;2022-10-04T06:26:51;10.30;99.90
60473;DHT22;46318;52.716;6.444;2022-10-04T06:29:52;10.30;99.90
60473;DHT22;46318;52.716;6.444;2022-10-04T06:41:18;10.30;99.90
60473;DHT22;46318;52.716;6.444;2022-10-04T06:46:47;10.30;99.90
60473;DHT22;46318;52.716;6.444;2022-10-04T06:49:21;10.30;99.90
60473;DHT22;46318;52.716;6.444;2022-10-04T06:55:27;10.30;99.90
60473;DHT22;46318;52.716;6.444;2022-10-04T06:58:34;10.30;99.90
60473;DHT22;46318;52.716;6.444;2022-10-04T07:01:22;10.30;99.90
60473;DHT22;46318;52.716;6.444;2022-10-04T07:10:32;10.40;99.90
60473;DHT22;46318;52.716;6.444;2022-10-04T07:19:25;10.60;99.90
60473;DHT22;46318;52.716;6.444;2022-10-04T07:28:18;10.80;99.90
60473;DHT22;46318;52.716;6.444;2022-10-04T07:31:19;10.80;99.90
60473;DHT22;46318;52.716;6.444;2022-10-04T07:33:55;10.80;99.90
60473;DHT22;46318;52.716;6.444;2022-10-04T07:39:32;10.80;99.90
60473;DHT22;46318;52.716;6.444;2022-10-04T07:42:30;10.90;99.90
60473;DHT22;46318;52.716;6.444;2022-10-04T07:45:07;11.00;99.90
60473;DHT22;46318;52.716;6.444;2022-10-04T07:47:37;11.10;99.90
60473;DHT22;46318;52.716;6.444;2022-10-04T07:50:25;11.20;99.90
60473;DHT22;46318;52.716;6.444;2022-10-04T07:59:04;11.40;99.90
60473;DHT22;46318;52.716;6.444;2022-10-04T08:01:59;11.40;99.90
60473;DHT22;46318;52.716;6.444;2022-10-04T08:04:54;11.40;99.90
60473;DHT22;46318;52.716;6.444;2022-10-04T08:10:36;11.50;99.90
60473;DHT22;46318;52.716;6.444;2022-10-04T08:13:37;11.60;99.90
60473;DHT22;46318;52.716;6.444;2022-10-04T08:31:02;12.20;99.90
60473;DHT22;46318;52.716;6.444;2022-10-04T08:36:40;12.40;99.90
60473;DHT22;46318;52.716;6.444;2022-10-04T08:45:09;12.70;99.90
60473;DHT22;46318;52.716;6.444;2022-10-04T08:48:10;12.70;99.90
60473;DHT22;46318;52.716;6.444;2022-10-04T09:09:21;13.70;99.90
60473;DHT22;46318;52.716;6.444;2022-10-04T09:12:40;13.70;99.90
60473;DHT22;46318;52.716;6.444;2022-10-04T09:18:47;13.90;99.90
60473;DHT22;46318;52.716;6.444;2022-10-04T09:25:20;14.20;99.90
60473;DHT22;46318;52.716;6.444;2022-10-04T09:28:30;14.20;99.90
60473;DHT22;46318;52.716;6.444;2022-10-04T10:00:58;15.40;99.90
60473;DHT22;46318;52.716;6.444;2022-10-04T10:04:04;15.40;99.90
60473;DHT22;46318;52.716;6.444;2022-10-04T10:09:50;15.60;99.90
60473;DHT22;46318;52.716;6.444;2022-10-04T10:13:01;15.70;99.90
60473;DHT22;46318;52.716;6.444;2022-10-04T10:21:47;16.00;99.90
60473;DHT22;46318;52.716;6.444;2022-10-04T10:37:31;16.40;98.90
60473;DHT22;46318;52.716;6.444;2022-10-04T10:47:13;16.60;97.40
60473;DHT22;46318;52.716;6.444;2022-10-04T10:49:30;16.70;97.10
60473;DHT22;46318;52.716;6.444;2022-10-04T10:54:57;16.80;97.30
60473;DHT22;46318;52.716;6.444;2022-10-04T10:58:13;16.90;97.20
60473;DHT22;46318;52.716;6.444;2022-10-04T11:04:05;17.10;95.20
60473;DHT22;46318;52.716;6.444;2022-10-04T11:07:09;17.20;95.60
60473;DHT22;46318;52.716;6.444;2022-10-04T11:10:12;17.30;95.20
60473;DHT22;46318;52.716;6.444;2022-10-04T11:19:09;17.50;95.00
60473;DHT22;46318;52.716;6.444;2022-10-04T11:30:39;17.80;93.60
60473;DHT22;46318;52.716;6.444;2022-10-04T11:42:16;18.20;92.40
60473;DHT22;46318;52.716;6.444;2022-10-04T11:45:12;18.20;92.90
60473;DHT22;46318;52.716;6.444;2022-10-04T11:50:46;18.40;92.60
60473;DHT22;46318;52.716;6.444;2022-10-04T11:57:09;18.60;91.50
60473;DHT22;46318;52.716;6.444;2022-10-04T12:00:19;18.60;91.50
60473;DHT22;46318;52.716;6.444;2022-10-04T12:29:57;19.30;90.30
60473;DHT22;46318;52.716;6.444;2022-10-04T12:33:07;19.40;90.10
60473;DHT22;46318;52.716;6.444;2022-10-04T12:35:56;19.50;88.50
60473;DHT22;46318;52.716;6.444;2022-10-04T12:38:36;19.60;88.50
60473;DHT22;46318;52.716;6.444;2022-10-04T12:41:41;19.70;89.60
60473;DHT22;46318;52.716;6.444;2022-10-04T12:47:42;19.90;86.70
60473;DHT22;46318;52.716;6.444;2022-10-04T12:53:26;20.10;84.50
60473;DHT22;46318;52.716;6.444;2022-10-04T12:56:40;20.20;83.20
60473;DHT22;46318;52.716;6.444;2022-10-04T13:11:23;20.60;77.90
60473;DHT22;46318;52.716;6.444;2022-10-04T13:18:04;20.40;78.10
60473;DHT22;46318;52.716;6.444;2022-10-04T13:23:20;20.60;78.60
60473;DHT22;46318;52.716;6.444;2022-10-04T13:29:26;20.60;76.40
60473;DHT22;46318;52.716;6.444;2022-10-04T13:32:15;20.50;79.00
60473;DHT22;46318;52.716;6.444;2022-10-04T13:37:32;20.30;79.40
60473;DHT22;46318;52.716;6.444;2022-10-04T13:49:39;20.70;78.20
60473;DHT22;46318;52.716;6.444;2022-10-04T13:52:58;20.70;74.90
60473;DHT22;46318;52.716;6.444;2022-10-04T13:56:11;20.60;74.20
60473;DHT22;46318;52.716;6.444;2022-10-04T14:02:22;20.20;75.00
60473;DHT22;46318;52.716;6.444;2022-10-04T14:11:20;19.80;75.60
60473;DHT22;46318;52.716;6.444;2022-10-04T14:19:53;19.50;78.40
60473;DHT22;46318;52.716;6.444;2022-10-04T14:23:05;19.50;77.80
60473;DHT22;46318;52.716;6.444;2022-10-04T14:31:57;19.30;79.30
60473;DHT22;46318;52.716;6.444;2022-10-04T14:38:05;19.30;80.90
60473;DHT22;46318;52.716;6.444;2022-10-04T14:41:01;19.20;81.00
60473;DHT22;46318;52.716;6.444;2022-10-04T14:47:13;19.20;82.30
60473;DHT22;46318;52.716;6.444;2022-10-04T15:05:03;19.00;83.70
60473;DHT22;46318;52.716;6.444;2022-10-04T15:07:51;19.00;82.80
60473;DHT22;46318;52.716;6.444;2022-10-04T15:10:35;18.90;83.00
60473;DHT22;46318;52.716;6.444;2022-10-04T15:13:24;18.90;81.70
60473;DHT22;46318;52.716;6.444;2022-10-04T15:24:48;18.70;80.80
60473;DHT22;46318;52.716;6.444;2022-10-04T15:27:34;18.60;81.30
60473;DHT22;46318;52.716;6.444;2022-10-04T15:39:33;18.50;81.90
60473;DHT22;46318;52.716;6.444;2022-10-04T15:42:12;18.50;82.20
60473;DHT22;46318;52.716;6.444;2022-10-04T15:44:53;18.50;83.00
60473;DHT22;46318;52.716;6.444;2022-10-04T15:50:56;18.50;83.10
60473;DHT22;46318;52.716;6.444;2022-10-04T15:56:41;18.40;83.40
60473;DHT22;46318;52.716;6.444;2022-10-04T16:05:45;18.30;83.60
60473;DHT22;46318;52.716;6.444;2022-10-04T16:08:27;18.30;85.10
60473;DHT22;46318;52.716;6.444;2022-10-04T16:14:18;18.20;85.90
60473;DHT22;46318;52.716;6.444;2022-10-04T16:20:29;18.20;86.70
60473;DHT22;46318;52.716;6.444;2022-10-04T16:25:58;18.10;87.20
60473;DHT22;46318;52.716;6.444;2022-10-04T16:40:45;17.90;88.70
60473;DHT22;46318;52.716;6.444;2022-10-04T16:45:43;17.80;89.10
60473;DHT22;46318;52.716;6.444;2022-10-04T17:11:13;17.40;90.70
60473;DHT22;46318;52.716;6.444;2022-10-04T17:13:52;17.40;90.90
60473;DHT22;46318;52.716;6.444;2022-10-04T17:16:36;17.30;90.80
60473;DHT22;46318;52.716;6.444;2022-10-04T17:19:29;17.30;90.90
60473;DHT22;46318;52.716;6.444;2022-10-04T17:22:20;17.30;91.10
60473;DHT22;46318;52.716;6.444;2022-10-04T17:31:27;17.10;91.30
60473;DHT22;46318;52.716;6.444;2022-10-04T17:37:33;17.10;91.50
60473;DHT22;46318;52.716;6.444;2022-10-04T17:40:53;17.10;91.70
60473;DHT22;46318;52.716;6.444;2022-10-04T17:46:32;17.00;92.00
60473;DHT22;46318;52.716;6.444;2022-10-04T17:49:30;16.90;92.10
60473;DHT22;46318;52.716;6.444;2022-10-04T17:52:24;16.90;92.30
60473;DHT22;46318;52.716;6.444;2022-10-04T17:55:25;16.90;92.30
60473;DHT22;46318;52.716;6.444;2022-10-04T17:58:21;16.80;92.40
60473;DHT22;46318;52.716;6.444;2022-10-04T18:01:01;16.80;92.50
60473;DHT22;46318;52.716;6.444;2022-10-04T18:03:37;16.80;92.50
60473;DHT22;46318;52.716;6.444;2022-10-04T18:06:40;16.80;92.50
60473;DHT22;46318;52.716;6.444;2022-10-04T18:09:54;16.70;92.60
60473;DHT22;46318;52.716;6.444;2022-10-04T18:12:54;16.70;92.60
60473;DHT22;46318;52.716;6.444;2022-10-04T18:15:41;16.70;92.60
60473;DHT22;46318;52.716;6.444;2022-10-04T18:18:20;16.60;92.60
60473;DHT22;46318;52.716;6.444;2022-10-04T18:23:23;16.60;92.70
60473;DHT22;46318;52.716;6.444;2022-10-04T18:26:10;16.60;92.90
60473;DHT22;46318;52.716;6.444;2022-10-04T18:28:44;16.50;92.80
60473;DHT22;46318;52.716;6.444;2022-10-04T18:31:35;16.50;92.80
60473;DHT22;46318;52.716;6.444;2022-10-04T18:34:25;16.50;93.00
60473;DHT22;46318;52.716;6.444;2022-10-04T18:37:11;16.50;93.10
60473;DHT22;46318;52.716;6.444;2022-10-04T18:39:46;16.50;93.10
60473;DHT22;46318;52.716;6.444;2022-10-04T18:42:19;16.50;93.10
60473;DHT22;46318;52.716;6.444;2022-10-04T18:44:58;16.50;93.20
60473;DHT22;46318;52.716;6.444;2022-10-04T18:47:38;16.40;93.20
60473;DHT22;46318;52.716;6.444;2022-10-04T18:50:43;16.40;93.40
60473;DHT22;46318;52.716;6.444;2022-10-04T18:53:43;16.40;93.50
60473;DHT22;46318;52.716;6.444;2022-10-04T18:56:11;16.40;93.50
60473;DHT22;46318;52.716;6.444;2022-10-04T19:10:26;16.30;93.90
60473;DHT22;46318;52.716;6.444;2022-10-04T19:13:20;16.30;94.00
60473;DHT22;46318;52.716;6.444;2022-10-04T19:16:10;16.30;94.20
60473;DHT22;46318;52.716;6.444;2022-10-04T19:18:49;16.30;94.20
60473;DHT22;46318;52.716;6.444;2022-10-04T19:21:54;16.30;94.20
60473;DHT22;46318;52.716;6.444;2022-10-04T19:25:35;16.30;94.30
60473;DHT22;46318;52.716;6.444;2022-10-04T19:27:48;16.30;94.40
60473;DHT22;46318;52.716;6.444;2022-10-04T19:33:16;16.20;94.40
60473;DHT22;46318;52.716;6.444;2022-10-04T19:36:19;16.20;94.70
60473;DHT22;46318;52.716;6.444;2022-10-04T19:42:18;16.20;94.80
60473;DHT22;46318;52.716;6.444;2022-10-04T19:47:51;16.20;95.00
60473;DHT22;46318;52.716;6.444;2022-10-04T19:50:24;16.10;95.00
60473;DHT22;46318;52.716;6.444;2022-10-04T19:52:57;16.10;95.10
60473;DHT22;46318;52.716;6.444;2022-10-04T19:58:32;16.10;95.10
60473;DHT22;46318;52.716;6.444;2022-10-04T20:01:17;16.10;95.20
60473;DHT22;46318;52.716;6.444;2022-10-04T20:03:46;16.00;95.30
60473;DHT22;46318;52.716;6.444;2022-10-04T20:06:32;16.00;95.40
60473;DHT22;46318;52.716;6.444;2022-10-04T20:11:49;16.00;95.60
60473;DHT22;46318;52.716;6.444;2022-10-04T20:22:26;16.00;95.90
60473;DHT22;46318;52.716;6.444;2022-10-04T20:24:53;16.00;96.10
60473;DHT22;46318;52.716;6.444;2022-10-04T20:30:11;16.00;96.00
60473;DHT22;46318;52.716;6.444;2022-10-04T20:35:12;15.90;96.20
60473;DHT22;46318;52.716;6.444;2022-10-04T20:38:15;15.90;96.20
60473;DHT22;46318;52.716;6.444;2022-10-04T20:40:42;15.90;96.30
60473;DHT22;46318;52.716;6.444;2022-10-04T20:45:48;15.90;96.50
60473;DHT22;46318;52.716;6.444;2022-10-04T20:48:18;15.90;96.60
60473;DHT22;46318;52.716;6.444;2022-10-04T20:50:45;15.90;96.60
60473;DHT22;46318;52.716;6.444;2022-10-04T20:53:18;15.90;96.60
60473;DHT22;46318;52.716;6.444;2022-10-04T20:55:48;15.90;96.80
60473;DHT22;46318;52.716;6.444;2022-10-04T20:58:30;15.90;96.80
60473;DHT22;46318;52.716;6.444;2022-10-04T21:01:02;15.90;97.00
60473;DHT22;46318;52.716;6.444;2022-10-04T21:04:25;15.90;97.00
60473;DHT22;46318;52.716;6.444;2022-10-04T21:07:20;15.90;97.10
60473;DHT22;46318;52.716;6.444;2022-10-04T21:09:47;15.90;97.00
60473;DHT22;46318;52.716;6.444;2022-10-04T21:12:30;15.90;97.10
60473;DHT22;46318;52.716;6.444;2022-10-04T21:17:36;15.90;97.30
60473;DHT22;46318;52.716;6.444;2022-10-04T21:20:03;15.90;97.40
60473;DHT22;46318;52.716;6.444;2022-10-04T21:22:32;15.90;97.40
60473;DHT22;46318;52.716;6.444;2022-10-04T21:25:03;15.90;97.50
60473;DHT22;46318;52.716;6.444;2022-10-04T21:27:31;15.80;97.50
60473;DHT22;46318;52.716;6.444;2022-10-04T21:30:05;15.80;97.60
60473;DHT22;46318;52.716;6.444;2022-10-04T21:32:34;15.80;97.60
60473;DHT22;46318;52.716;6.444;2022-10-04T21:35:02;15.80;97.70
60473;DHT22;46318;52.716;6.444;2022-10-04T21:37:29;15.80;97.70
60473;DHT22;46318;52.716;6.444;2022-10-04T21:39:55;15.80;97.80
60473;DHT22;46318;52.716;6.444;2022-10-04T21:42:21;15.80;97.80
60473;DHT22;46318;52.716;6.444;2022-10-04T21:44:48;15.80;97.90
60473;DHT22;46318;52.716;6.444;2022-10-04T21:47:16;15.80;97.90
60473;DHT22;46318;52.716;6.444;2022-10-04T21:49:42;15.80;98.00
60473;DHT22;46318;52.716;6.444;2022-10-04T21:52:08;15.80;98.10
60473;DHT22;46318;52.716;6.444;2022-10-04T21:54:34;15.80;98.10
60473;DHT22;46318;52.716;6.444;2022-10-04T21:57:00;15.80;98.10
60473;DHT22;46318;52.716;6.444;2022-10-04T21:59:25;15.80;98.20
60473;DHT22;46318;52.716;6.444;2022-10-04T22:01:52;15.80;98.30
60473;DHT22;46318;52.716;6.444;2022-10-04T22:04:18;15.80;98.30
60473;DHT22;46318;52.716;6.444;2022-10-04T22:06:43;15.70;98.30
60473;DHT22;46318;52.716;6.444;2022-10-04T22:09:09;15.70;98.40
60473;DHT22;46318;52.716;6.444;2022-10-04T22:11:36;15.80;98.50
60473;DHT22;46318;52.716;6.444;2022-10-04T22:14:02;15.70;98.50
60473;DHT22;46318;52.716;6.444;2022-10-04T22:16:28;15.70;98.60
60473;DHT22;46318;52.716;6.444;2022-10-04T22:18:54;15.70;98.60
60473;DHT22;46318;52.716;6.444;2022-10-04T22:21:20;15.70;98.60
60473;DHT22;46318;52.716;6.444;2022-10-04T22:23:45;15.70;98.70
60473;DHT22;46318;52.716;6.444;2022-10-04T22:26:14;15.70;98.80
60473;DHT22;46318;52.716;6.444;2022-10-04T22:28:44;15.70;98.80
60473;DHT22;46318;52.716;6.444;2022-10-04T22:31:25;15.70;98.80
60473;DHT22;46318;52.716;6.444;2022-10-04T22:33:53;15.70;99.00
60473;DHT22;46318;52.716;6.444;2022-10-04T22:36:35;15.70;99.00
60473;DHT22;46318;52.716;6.444;2022-10-04T22:41:43;15.70;99.00
60473;DHT22;46318;52.716;6.444;2022-10-04T22:44:22;15.70;99.20
60473;DHT22;46318;52.716;6.444;2022-10-04T22:46:52;15.70;99.30
60473;DHT22;46318;52.716;6.444;2022-10-04T22:49:24;15.70;99.20
60473;DHT22;46318;52.716;6.444;2022-10-04T22:51:54;15.70;99.20
60473;DHT22;46318;52.716;6.444;2022-10-04T22:54:26;15.70;99.30
60473;DHT22;46318;52.716;6.444;2022-10-04T22:56:56;15.70;99.30
60473;DHT22;46318;52.716;6.444;2022-10-04T22:59:31;15.60;99.30
60473;DHT22;46318;52.716;6.444;2022-10-04T23:02:00;15.60;99.30
60473;DHT22;46318;52.716;6.444;2022-10-04T23:04:31;15.60;99.40
60473;DHT22;46318;52.716;6.444;2022-10-04T23:06:57;15.60;99.40
60473;DHT22;46318;52.716;6.444;2022-10-04T23:09:23;15.60;99.50
60473;DHT22;46318;52.716;6.444;2022-10-04T23:11:48;15.60;99.60
60473;DHT22;46318;52.716;6.444;2022-10-04T23:14:14;15.60;99.60
60473;DHT22;46318;52.716;6.444;2022-10-04T23:16:40;15.60;99.70
60473;DHT22;46318;52.716;6.444;2022-10-04T23:19:11;15.60;99.70
60473;DHT22;46318;52.716;6.444;2022-10-04T23:21:42;15.60;99.80
60473;DHT22;46318;52.716;6.444;2022-10-04T23:24:16;15.60;99.90
60473;DHT22;46318;52.716;6.444;2022-10-04T23:26:46;15.60;99.90
60473;DHT22;46318;52.716;6.444;2022-10-04T23:29:24;15.60;99.90
60473;DHT22;46318;52.716;6.444;2022-10-04T23:31:51;15.60;99.90
60473;DHT22;46318;52.716;6.444;2022-10-04T23:34:28;15.60;99.90
60473;DHT22;46318;52.716;6.444;2022-10-04T23:36:58;15.60;99.90
60473;DHT22;46318;52.716;6.444;2022-10-04T23:39:26;15.60;99.90
60473;DHT22;46318;52.716;6.444;2022-10-04T23:41:54;15.60;99.90
60473;DHT22;46318;52.716;6.444;2022-10-04T23:44:29;15.60;99.90
60473;DHT22;46318;52.716;6.444;2022-10-04T23:47:00;15.60;99.90
60473;DHT22;46318;52.716;6.444;2022-10-04T23:49:27;15.60;99.90
60473;DHT22;46318;52.716;6.444;2022-10-04T23:51:59;15.60;99.90
60473;DHT22;46318;52.716;6.444;2022-10-04T23:54:26;15.60;99.90
60473;DHT22;46318;52.716;6.444;2022-10-04T23:56:52;15.60;99.90
60473;DHT22;46318;52.716;6.444;2022-10-04T23:59:21;15.60;99.90
